sensor_id;sensor_type;location;lat;lon;timestamp;P1;durP1;ratioP1;P2;durP2;ratioP2
69594;SDS011;56800;52.142;5.364;2024-01-07T00:02:14;16.10;;;10.52;;
69594;SDS011;56800;52.142;5.364;2024-01-07T00:04:41;16.25;;;10.50;;
69594;SDS011;56800;52.142;5.364;2024-01-07T00:07:08;16.93;;;9.73;;
69594;SDS011;56800;52.142;5.364;2024-01-07T00:09:34;15.82;;;9.93;;
69594;SDS011;56800;52.142;5.364;2024-01-07T00:12:01;13.77;;;8.98;;
69594;SDS011;56800;52.142;5.364;2024-01-07T00:14:28;15.18;;;9.70;;
69594;SDS011;56800;52.142;5.364;2024-01-07T00:16:55;13.53;;;8.67;;
69594;SDS011;56800;52.142;5.364;2024-01-07T00:19:21;14.13;;;9.05;;
69594;SDS011;56800;52.142;5.364;2024-01-07T00:21:48;14.98;;;9.30;;
69594;SDS011;56800;52.142;5.364;2024-01-07T00:24:16;14.48;;;9.00;;
69594;SDS011;56800;52.142;5.364;2024-01-07T00:26:42;15.03;;;8.60;;
69594;SDS011;56800;52.142;5.364;2024-01-07T00:29:09;13.18;;;9.07;;
69594;SDS011;56800;52.142;5.364;2024-01-07T00:31:36;14.48;;;9.45;;
69594;SDS011;56800;52.142;5.364;2024-01-07T00:34:03;13.93;;;9.77;;
69594;SDS011;56800;52.142;5.364;2024-01-07T00:36:29;14.55;;;8.80;;
69594;SDS011;56800;52.142;5.364;2024-01-07T00:38:56;13.35;;;8.93;;
69594;SDS011;56800;52.142;5.364;2024-01-07T00:41:23;13.57;;;8.77;;
69594;SDS011;56800;52.142;5.364;2024-01-07T00:43:50;13.40;;;9.18;;
69594;SDS011;56800;52.142;5.364;2024-01-07T00:46:17;13.17;;;8.97;;
69594;SDS011;56800;52.142;5.364;2024-01-07T00:48:44;13.25;;;8.50;;
69594;SDS011;56800;52.142;5.364;2024-01-07T00:51:11;12.88;;;8.50;;
69594;SDS011;56800;52.142;5.364;2024-01-07T00:53:37;12.73;;;8.48;;
69594;SDS011;56800;52.142;5.364;2024-01-07T00:56:04;13.63;;;9.20;;
69594;SDS011;56800;52.142;5.364;2024-01-07T00:58:31;12.18;;;8.30;;
69594;SDS011;56800;52.142;5.364;2024-01-07T01:00:58;14.85;;;9.02;;
69594;SDS011;56800;52.142;5.364;2024-01-07T01:03:26;13.60;;;8.95;;
69594;SDS011;56800;52.142;5.364;2024-01-07T01:05:53;13.98;;;9.07;;
69594;SDS011;56800;52.142;5.364;2024-01-07T01:08:20;13.23;;;8.90;;
69594;SDS011;56800;52.142;5.364;2024-01-07T01:10:46;13.18;;;8.70;;
69594;SDS011;56800;52.142;5.364;2024-01-07T01:13:13;12.88;;;8.18;;
69594;SDS011;56800;52.142;5.364;2024-01-07T01:15:40;13.23;;;7.97;;
69594;SDS011;56800;52.142;5.364;2024-01-07T01:18:06;11.70;;;8.13;;
69594;SDS011;56800;52.142;5.364;2024-01-07T01:20:33;12.52;;;8.10;;
69594;SDS011;56800;52.142;5.364;2024-01-07T01:23:00;12.77;;;8.27;;
69594;SDS011;56800;52.142;5.364;2024-01-07T01:25:27;14.68;;;9.48;;
69594;SDS011;56800;52.142;5.364;2024-01-07T01:27:56;15.02;;;9.25;;
69594;SDS011;56800;52.142;5.364;2024-01-07T01:30:23;16.08;;;9.18;;
69594;SDS011;56800;52.142;5.364;2024-01-07T01:32:49;16.02;;;9.57;;
69594;SDS011;56800;52.142;5.364;2024-01-07T01:35:16;17.30;;;9.93;;
69594;SDS011;56800;52.142;5.364;2024-01-07T01:37:43;18.50;;;11.57;;
69594;SDS011;56800;52.142;5.364;2024-01-07T01:40:10;16.13;;;10.35;;
69594;SDS011;56800;52.142;5.364;2024-01-07T01:42:37;18.25;;;10.63;;
69594;SDS011;56800;52.142;5.364;2024-01-07T01:45:04;21.30;;;11.13;;
69594;SDS011;56800;52.142;5.364;2024-01-07T01:47:31;19.45;;;10.93;;
69594;SDS011;56800;52.142;5.364;2024-01-07T01:49:58;17.85;;;11.10;;
69594;SDS011;56800;52.142;5.364;2024-01-07T01:52:25;20.35;;;11.32;;
69594;SDS011;56800;52.142;5.364;2024-01-07T01:54:53;18.20;;;11.20;;
69594;SDS011;56800;52.142;5.364;2024-01-07T01:57:21;18.10;;;11.05;;
69594;SDS011;56800;52.142;5.364;2024-01-07T01:59:50;17.53;;;10.70;;
69594;SDS011;56800;52.142;5.364;2024-01-07T02:02:17;19.20;;;11.35;;
69594;SDS011;56800;52.142;5.364;2024-01-07T02:04:44;19.17;;;11.73;;
69594;SDS011;56800;52.142;5.364;2024-01-07T02:07:11;18.88;;;11.23;;
69594;SDS011;56800;52.142;5.364;2024-01-07T02:09:38;19.60;;;11.57;;
69594;SDS011;56800;52.142;5.364;2024-01-07T02:12:06;19.13;;;11.88;;
69594;SDS011;56800;52.142;5.364;2024-01-07T02:14:38;20.90;;;11.65;;
69594;SDS011;56800;52.142;5.364;2024-01-07T02:17:05;20.70;;;11.95;;
69594;SDS011;56800;52.142;5.364;2024-01-07T02:19:32;19.30;;;11.73;;
69594;SDS011;56800;52.142;5.364;2024-01-07T02:21:59;18.90;;;11.77;;
69594;SDS011;56800;52.142;5.364;2024-01-07T02:24:26;21.67;;;12.70;;
69594;SDS011;56800;52.142;5.364;2024-01-07T02:26:53;23.02;;;13.07;;
69594;SDS011;56800;52.142;5.364;2024-01-07T02:29:19;22.27;;;12.90;;
69594;SDS011;56800;52.142;5.364;2024-01-07T02:31:46;23.50;;;13.82;;
69594;SDS011;56800;52.142;5.364;2024-01-07T02:34:13;20.65;;;12.10;;
69594;SDS011;56800;52.142;5.364;2024-01-07T02:36:40;23.33;;;13.80;;
69594;SDS011;56800;52.142;5.364;2024-01-07T02:39:07;22.83;;;12.27;;
69594;SDS011;56800;52.142;5.364;2024-01-07T02:41:33;21.17;;;13.23;;
69594;SDS011;56800;52.142;5.364;2024-01-07T02:44:00;22.77;;;12.98;;
69594;SDS011;56800;52.142;5.364;2024-01-07T02:46:26;21.08;;;11.77;;
69594;SDS011;56800;52.142;5.364;2024-01-07T02:48:53;19.42;;;11.35;;
69594;SDS011;56800;52.142;5.364;2024-01-07T02:51:20;19.13;;;11.40;;
69594;SDS011;56800;52.142;5.364;2024-01-07T02:53:47;16.53;;;11.07;;
69594;SDS011;56800;52.142;5.364;2024-01-07T02:56:13;19.35;;;11.25;;
69594;SDS011;56800;52.142;5.364;2024-01-07T02:58:40;17.92;;;11.50;;
69594;SDS011;56800;52.142;5.364;2024-01-07T03:01:10;16.63;;;10.80;;
69594;SDS011;56800;52.142;5.364;2024-01-07T03:03:37;17.17;;;11.03;;
69594;SDS011;56800;52.142;5.364;2024-01-07T03:06:04;17.35;;;11.40;;
69594;SDS011;56800;52.142;5.364;2024-01-07T03:08:31;17.27;;;10.80;;
69594;SDS011;56800;52.142;5.364;2024-01-07T03:10:57;16.90;;;11.17;;
69594;SDS011;56800;52.142;5.364;2024-01-07T03:13:24;19.80;;;12.18;;
69594;SDS011;56800;52.142;5.364;2024-01-07T03:15:51;17.70;;;11.00;;
69594;SDS011;56800;52.142;5.364;2024-01-07T03:18:18;20.02;;;11.25;;
69594;SDS011;56800;52.142;5.364;2024-01-07T03:20:45;20.67;;;11.77;;
69594;SDS011;56800;52.142;5.364;2024-01-07T03:23:11;18.45;;;11.57;;
69594;SDS011;56800;52.142;5.364;2024-01-07T03:25:38;21.47;;;11.90;;
69594;SDS011;56800;52.142;5.364;2024-01-07T03:28:05;25.45;;;11.50;;
69594;SDS011;56800;52.142;5.364;2024-01-07T03:30:32;19.83;;;11.55;;
69594;SDS011;56800;52.142;5.364;2024-01-07T03:32:59;22.40;;;11.23;;
69594;SDS011;56800;52.142;5.364;2024-01-07T03:35:25;19.85;;;11.43;;
69594;SDS011;56800;52.142;5.364;2024-01-07T03:37:52;20.70;;;11.37;;
69594;SDS011;56800;52.142;5.364;2024-01-07T03:40:19;20.45;;;11.82;;
69594;SDS011;56800;52.142;5.364;2024-01-07T03:42:46;19.73;;;11.90;;
69594;SDS011;56800;52.142;5.364;2024-01-07T03:45:12;20.60;;;11.27;;
69594;SDS011;56800;52.142;5.364;2024-01-07T03:47:39;20.53;;;12.00;;
69594;SDS011;56800;52.142;5.364;2024-01-07T03:50:06;20.55;;;12.35;;
69594;SDS011;56800;52.142;5.364;2024-01-07T03:52:33;22.25;;;12.35;;
69594;SDS011;56800;52.142;5.364;2024-01-07T03:55:01;21.75;;;12.38;;
69594;SDS011;56800;52.142;5.364;2024-01-07T03:57:28;19.43;;;11.07;;
69594;SDS011;56800;52.142;5.364;2024-01-07T03:59:55;21.63;;;12.35;;
69594;SDS011;56800;52.142;5.364;2024-01-07T04:02:22;21.98;;;12.20;;
69594;SDS011;56800;52.142;5.364;2024-01-07T04:04:48;20.17;;;11.70;;
69594;SDS011;56800;52.142;5.364;2024-01-07T04:07:15;21.20;;;11.53;;
69594;SDS011;56800;52.142;5.364;2024-01-07T04:09:42;23.52;;;13.02;;
69594;SDS011;56800;52.142;5.364;2024-01-07T04:12:10;20.58;;;12.48;;
69594;SDS011;56800;52.142;5.364;2024-01-07T04:14:37;20.38;;;12.05;;
69594;SDS011;56800;52.142;5.364;2024-01-07T04:17:04;24.98;;;13.50;;
69594;SDS011;56800;52.142;5.364;2024-01-07T04:19:31;22.58;;;11.85;;
69594;SDS011;56800;52.142;5.364;2024-01-07T04:21:58;24.30;;;12.60;;
69594;SDS011;56800;52.142;5.364;2024-01-07T04:24:24;24.02;;;13.48;;
69594;SDS011;56800;52.142;5.364;2024-01-07T04:26:51;25.45;;;13.95;;
69594;SDS011;56800;52.142;5.364;2024-01-07T04:29:18;22.63;;;13.70;;
69594;SDS011;56800;52.142;5.364;2024-01-07T04:31:45;25.58;;;13.65;;
69594;SDS011;56800;52.142;5.364;2024-01-07T04:34:12;23.27;;;13.35;;
69594;SDS011;56800;52.142;5.364;2024-01-07T04:36:39;21.83;;;12.65;;
69594;SDS011;56800;52.142;5.364;2024-01-07T04:39:06;22.23;;;12.83;;
69594;SDS011;56800;52.142;5.364;2024-01-07T04:41:32;20.02;;;12.27;;
69594;SDS011;56800;52.142;5.364;2024-01-07T04:43:59;19.02;;;12.13;;
69594;SDS011;56800;52.142;5.364;2024-01-07T04:46:26;20.42;;;12.23;;
69594;SDS011;56800;52.142;5.364;2024-01-07T04:48:52;22.50;;;12.90;;
69594;SDS011;56800;52.142;5.364;2024-01-07T04:51:19;21.35;;;12.27;;
69594;SDS011;56800;52.142;5.364;2024-01-07T04:53:46;19.50;;;11.77;;
69594;SDS011;56800;52.142;5.364;2024-01-07T04:56:14;19.85;;;11.27;;
69594;SDS011;56800;52.142;5.364;2024-01-07T04:58:41;17.80;;;10.73;;
69594;SDS011;56800;52.142;5.364;2024-01-07T05:01:07;17.55;;;10.05;;
69594;SDS011;56800;52.142;5.364;2024-01-07T05:03:34;18.02;;;10.48;;
69594;SDS011;56800;52.142;5.364;2024-01-07T05:06:02;16.77;;;9.95;;
69594;SDS011;56800;52.142;5.364;2024-01-07T05:08:28;15.20;;;9.57;;
69594;SDS011;56800;52.142;5.364;2024-01-07T05:10:55;16.70;;;9.45;;
69594;SDS011;56800;52.142;5.364;2024-01-07T05:13:22;15.90;;;9.45;;
69594;SDS011;56800;52.142;5.364;2024-01-07T05:15:49;15.20;;;9.63;;
69594;SDS011;56800;52.142;5.364;2024-01-07T05:18:23;13.70;;;8.95;;
69594;SDS011;56800;52.142;5.364;2024-01-07T05:20:51;16.80;;;9.48;;
69594;SDS011;56800;52.142;5.364;2024-01-07T05:23:17;17.05;;;10.40;;
69594;SDS011;56800;52.142;5.364;2024-01-07T05:25:44;16.50;;;9.43;;
69594;SDS011;56800;52.142;5.364;2024-01-07T05:28:12;14.63;;;9.23;;
69594;SDS011;56800;52.142;5.364;2024-01-07T05:30:40;16.52;;;9.85;;
69594;SDS011;56800;52.142;5.364;2024-01-07T05:33:10;14.98;;;9.05;;
69594;SDS011;56800;52.142;5.364;2024-01-07T05:35:36;15.25;;;10.15;;
69594;SDS011;56800;52.142;5.364;2024-01-07T05:38:03;15.98;;;9.77;;
69594;SDS011;56800;52.142;5.364;2024-01-07T05:40:30;16.98;;;9.85;;
69594;SDS011;56800;52.142;5.364;2024-01-07T05:42:56;15.70;;;9.55;;
69594;SDS011;56800;52.142;5.364;2024-01-07T05:45:23;14.48;;;9.18;;
69594;SDS011;56800;52.142;5.364;2024-01-07T05:47:50;17.60;;;10.03;;
69594;SDS011;56800;52.142;5.364;2024-01-07T05:50:17;15.73;;;9.10;;
69594;SDS011;56800;52.142;5.364;2024-01-07T05:52:45;18.13;;;9.68;;
69594;SDS011;56800;52.142;5.364;2024-01-07T05:55:12;14.73;;;9.05;;
69594;SDS011;56800;52.142;5.364;2024-01-07T05:57:39;15.88;;;9.75;;
69594;SDS011;56800;52.142;5.364;2024-01-07T06:00:05;15.63;;;9.50;;
69594;SDS011;56800;52.142;5.364;2024-01-07T06:02:34;15.77;;;9.25;;
69594;SDS011;56800;52.142;5.364;2024-01-07T06:05:01;16.92;;;9.80;;
69594;SDS011;56800;52.142;5.364;2024-01-07T06:07:29;19.02;;;9.52;;
69594;SDS011;56800;52.142;5.364;2024-01-07T06:09:56;17.23;;;10.10;;
69594;SDS011;56800;52.142;5.364;2024-01-07T06:12:23;16.08;;;9.68;;
69594;SDS011;56800;52.142;5.364;2024-01-07T06:14:49;19.25;;;10.55;;
69594;SDS011;56800;52.142;5.364;2024-01-07T06:17:16;16.73;;;10.13;;
69594;SDS011;56800;52.142;5.364;2024-01-07T06:19:43;15.50;;;9.98;;
69594;SDS011;56800;52.142;5.364;2024-01-07T06:22:10;16.33;;;9.63;;
69594;SDS011;56800;52.142;5.364;2024-01-07T06:24:36;14.32;;;9.13;;
69594;SDS011;56800;52.142;5.364;2024-01-07T06:27:03;15.68;;;8.75;;
69594;SDS011;56800;52.142;5.364;2024-01-07T06:29:30;14.00;;;8.68;;
69594;SDS011;56800;52.142;5.364;2024-01-07T06:31:57;14.07;;;7.73;;
69594;SDS011;56800;52.142;5.364;2024-01-07T06:34:24;12.68;;;7.65;;
69594;SDS011;56800;52.142;5.364;2024-01-07T06:36:51;13.50;;;8.70;;
69594;SDS011;56800;52.142;5.364;2024-01-07T06:39:18;13.23;;;8.25;;
69594;SDS011;56800;52.142;5.364;2024-01-07T06:41:45;12.53;;;7.90;;
69594;SDS011;56800;52.142;5.364;2024-01-07T06:44:12;11.90;;;7.88;;
69594;SDS011;56800;52.142;5.364;2024-01-07T06:46:39;12.52;;;7.82;;
69594;SDS011;56800;52.142;5.364;2024-01-07T06:49:06;13.27;;;8.60;;
69594;SDS011;56800;52.142;5.364;2024-01-07T06:51:35;13.57;;;8.73;;
69594;SDS011;56800;52.142;5.364;2024-01-07T06:54:02;15.50;;;8.53;;
69594;SDS011;56800;52.142;5.364;2024-01-07T06:56:28;15.43;;;8.77;;
69594;SDS011;56800;52.142;5.364;2024-01-07T06:58:55;13.90;;;8.85;;
69594;SDS011;56800;52.142;5.364;2024-01-07T07:01:22;14.30;;;8.38;;
69594;SDS011;56800;52.142;5.364;2024-01-07T07:03:52;14.65;;;8.32;;
69594;SDS011;56800;52.142;5.364;2024-01-07T07:06:19;13.82;;;8.82;;
69594;SDS011;56800;52.142;5.364;2024-01-07T07:08:45;16.23;;;9.75;;
69594;SDS011;56800;52.142;5.364;2024-01-07T07:11:12;12.98;;;8.43;;
69594;SDS011;56800;52.142;5.364;2024-01-07T07:13:39;14.30;;;9.03;;
69594;SDS011;56800;52.142;5.364;2024-01-07T07:16:06;13.77;;;8.52;;
69594;SDS011;56800;52.142;5.364;2024-01-07T07:18:33;15.63;;;9.48;;
69594;SDS011;56800;52.142;5.364;2024-01-07T07:21:00;16.55;;;9.27;;
69594;SDS011;56800;52.142;5.364;2024-01-07T07:23:27;15.15;;;8.95;;
69594;SDS011;56800;52.142;5.364;2024-01-07T07:25:53;16.50;;;9.05;;
69594;SDS011;56800;52.142;5.364;2024-01-07T07:28:20;13.02;;;9.32;;
69594;SDS011;56800;52.142;5.364;2024-01-07T07:30:47;15.90;;;9.38;;
69594;SDS011;56800;52.142;5.364;2024-01-07T07:33:17;15.50;;;9.07;;
69594;SDS011;56800;52.142;5.364;2024-01-07T07:35:44;16.15;;;8.85;;
69594;SDS011;56800;52.142;5.364;2024-01-07T07:38:12;13.73;;;8.80;;
69594;SDS011;56800;52.142;5.364;2024-01-07T07:40:39;14.15;;;8.48;;
69594;SDS011;56800;52.142;5.364;2024-01-07T07:43:06;13.70;;;8.40;;
69594;SDS011;56800;52.142;5.364;2024-01-07T07:45:33;13.25;;;8.40;;
69594;SDS011;56800;52.142;5.364;2024-01-07T07:48:00;13.57;;;8.60;;
69594;SDS011;56800;52.142;5.364;2024-01-07T07:50:27;13.50;;;8.63;;
69594;SDS011;56800;52.142;5.364;2024-01-07T07:52:54;14.52;;;8.00;;
69594;SDS011;56800;52.142;5.364;2024-01-07T07:55:20;14.50;;;8.50;;
69594;SDS011;56800;52.142;5.364;2024-01-07T07:57:47;12.32;;;8.38;;
69594;SDS011;56800;52.142;5.364;2024-01-07T08:00:16;15.60;;;9.88;;
69594;SDS011;56800;52.142;5.364;2024-01-07T08:02:42;15.15;;;8.30;;
69594;SDS011;56800;52.142;5.364;2024-01-07T08:05:09;15.80;;;8.53;;
69594;SDS011;56800;52.142;5.364;2024-01-07T08:07:36;13.50;;;8.57;;
69594;SDS011;56800;52.142;5.364;2024-01-07T08:10:03;12.60;;;8.23;;
69594;SDS011;56800;52.142;5.364;2024-01-07T08:12:30;13.40;;;8.32;;
69594;SDS011;56800;52.142;5.364;2024-01-07T08:14:57;13.43;;;8.27;;
69594;SDS011;56800;52.142;5.364;2024-01-07T08:17:24;11.38;;;7.47;;
69594;SDS011;56800;52.142;5.364;2024-01-07T08:19:52;15.55;;;8.85;;
69594;SDS011;56800;52.142;5.364;2024-01-07T08:22:19;15.38;;;8.77;;
69594;SDS011;56800;52.142;5.364;2024-01-07T08:24:46;13.88;;;8.27;;
69594;SDS011;56800;52.142;5.364;2024-01-07T08:27:13;13.18;;;8.60;;
69594;SDS011;56800;52.142;5.364;2024-01-07T08:29:42;11.45;;;7.63;;
69594;SDS011;56800;52.142;5.364;2024-01-07T08:32:10;13.60;;;7.97;;
69594;SDS011;56800;52.142;5.364;2024-01-07T08:34:38;11.15;;;7.70;;
69594;SDS011;56800;52.142;5.364;2024-01-07T08:37:07;12.50;;;7.95;;
69594;SDS011;56800;52.142;5.364;2024-01-07T08:39:35;13.18;;;7.85;;
69594;SDS011;56800;52.142;5.364;2024-01-07T08:42:01;12.50;;;7.63;;
69594;SDS011;56800;52.142;5.364;2024-01-07T08:44:30;15.85;;;7.97;;
69594;SDS011;56800;52.142;5.364;2024-01-07T08:46:57;13.77;;;7.95;;
69594;SDS011;56800;52.142;5.364;2024-01-07T08:49:24;13.98;;;8.30;;
69594;SDS011;56800;52.142;5.364;2024-01-07T08:51:51;11.45;;;8.05;;
69594;SDS011;56800;52.142;5.364;2024-01-07T08:54:18;14.10;;;7.80;;
69594;SDS011;56800;52.142;5.364;2024-01-07T08:56:45;12.95;;;7.55;;
69594;SDS011;56800;52.142;5.364;2024-01-07T08:59:12;10.55;;;6.93;;
69594;SDS011;56800;52.142;5.364;2024-01-07T09:01:39;9.57;;;6.57;;
69594;SDS011;56800;52.142;5.364;2024-01-07T09:04:05;16.27;;;6.83;;
69594;SDS011;56800;52.142;5.364;2024-01-07T09:06:32;10.15;;;6.55;;
69594;SDS011;56800;52.142;5.364;2024-01-07T09:08:59;10.70;;;6.72;;
69594;SDS011;56800;52.142;5.364;2024-01-07T09:11:26;11.13;;;6.43;;
69594;SDS011;56800;52.142;5.364;2024-01-07T09:13:52;11.38;;;6.57;;
69594;SDS011;56800;52.142;5.364;2024-01-07T09:16:19;11.35;;;6.25;;
69594;SDS011;56800;52.142;5.364;2024-01-07T09:18:46;11.50;;;6.38;;
69594;SDS011;56800;52.142;5.364;2024-01-07T09:21:13;11.37;;;6.87;;
69594;SDS011;56800;52.142;5.364;2024-01-07T09:23:41;12.52;;;6.45;;
69594;SDS011;56800;52.142;5.364;2024-01-07T09:26:09;12.07;;;6.90;;
69594;SDS011;56800;52.142;5.364;2024-01-07T09:28:36;13.07;;;6.90;;
69594;SDS011;56800;52.142;5.364;2024-01-07T09:31:02;11.98;;;7.10;;
69594;SDS011;56800;52.142;5.364;2024-01-07T09:33:29;13.13;;;6.85;;
69594;SDS011;56800;52.142;5.364;2024-01-07T09:35:56;11.15;;;6.68;;
69594;SDS011;56800;52.142;5.364;2024-01-07T09:38:36;11.80;;;7.03;;
69594;SDS011;56800;52.142;5.364;2024-01-07T09:41:02;8.73;;;5.80;;
69594;SDS011;56800;52.142;5.364;2024-01-07T09:43:29;13.37;;;6.10;;
69594;SDS011;56800;52.142;5.364;2024-01-07T09:46:01;13.60;;;5.97;;
69594;SDS011;56800;52.142;5.364;2024-01-07T09:48:28;10.23;;;6.53;;
69594;SDS011;56800;52.142;5.364;2024-01-07T09:50:56;10.20;;;5.68;;
69594;SDS011;56800;52.142;5.364;2024-01-07T09:53:25;10.18;;;5.60;;
69594;SDS011;56800;52.142;5.364;2024-01-07T09:56:03;8.50;;;4.97;;
69594;SDS011;56800;52.142;5.364;2024-01-07T09:58:32;10.43;;;5.38;;
69594;SDS011;56800;52.142;5.364;2024-01-07T10:00:59;10.33;;;5.20;;
69594;SDS011;56800;52.142;5.364;2024-01-07T10:03:26;9.98;;;4.97;;
69594;SDS011;56800;52.142;5.364;2024-01-07T10:05:53;9.48;;;5.07;;
69594;SDS011;56800;52.142;5.364;2024-01-07T10:08:20;8.15;;;4.85;;
69594;SDS011;56800;52.142;5.364;2024-01-07T10:10:48;8.63;;;5.10;;
69594;SDS011;56800;52.142;5.364;2024-01-07T10:13:15;9.18;;;4.72;;
69594;SDS011;56800;52.142;5.364;2024-01-07T10:15:41;8.70;;;4.47;;
69594;SDS011;56800;52.142;5.364;2024-01-07T10:18:08;7.82;;;4.32;;
69594;SDS011;56800;52.142;5.364;2024-01-07T10:20:35;11.20;;;4.63;;
69594;SDS011;56800;52.142;5.364;2024-01-07T10:23:02;8.20;;;4.43;;
69594;SDS011;56800;52.142;5.364;2024-01-07T10:25:32;8.48;;;4.38;;
69594;SDS011;56800;52.142;5.364;2024-01-07T10:27:59;6.45;;;3.85;;
69594;SDS011;56800;52.142;5.364;2024-01-07T10:30:30;11.37;;;4.17;;
69594;SDS011;56800;52.142;5.364;2024-01-07T10:32:58;10.77;;;4.03;;
69594;SDS011;56800;52.142;5.364;2024-01-07T10:35:28;7.20;;;3.83;;
69594;SDS011;56800;52.142;5.364;2024-01-07T10:37:59;8.27;;;3.67;;
69594;SDS011;56800;52.142;5.364;2024-01-07T10:40:27;12.70;;;4.43;;
69594;SDS011;56800;52.142;5.364;2024-01-07T10:42:56;5.77;;;3.23;;
69594;SDS011;56800;52.142;5.364;2024-01-07T10:45:24;6.97;;;2.67;;
69594;SDS011;56800;52.142;5.364;2024-01-07T10:47:55;6.13;;;3.00;;
69594;SDS011;56800;52.142;5.364;2024-01-07T10:50:26;5.88;;;3.05;;
69594;SDS011;56800;52.142;5.364;2024-01-07T10:52:57;7.53;;;3.43;;
69594;SDS011;56800;52.142;5.364;2024-01-07T10:55:29;7.80;;;3.17;;
69594;SDS011;56800;52.142;5.364;2024-01-07T10:58:00;5.20;;;3.00;;
69594;SDS011;56800;52.142;5.364;2024-01-07T11:00:29;6.00;;;3.25;;
69594;SDS011;56800;52.142;5.364;2024-01-07T11:03:09;5.63;;;3.00;;
69594;SDS011;56800;52.142;5.364;2024-01-07T11:10:49;5.60;;;2.40;;
69594;SDS011;56800;52.142;5.364;2024-01-07T11:13:36;6.63;;;2.80;;
69594;SDS011;56800;52.142;5.364;2024-01-07T11:16:05;5.82;;;2.50;;
69594;SDS011;56800;52.142;5.364;2024-01-07T11:18:40;4.37;;;2.53;;
69594;SDS011;56800;52.142;5.364;2024-01-07T11:21:22;5.22;;;3.00;;
69594;SDS011;56800;52.142;5.364;2024-01-07T11:23:51;7.30;;;3.08;;
69594;SDS011;56800;52.142;5.364;2024-01-07T11:26:22;4.97;;;2.70;;
69594;SDS011;56800;52.142;5.364;2024-01-07T11:31:17;6.20;;;2.63;;
69594;SDS011;56800;52.142;5.364;2024-01-07T11:33:46;4.32;;;2.45;;
69594;SDS011;56800;52.142;5.364;2024-01-07T11:36:15;7.75;;;2.58;;
69594;SDS011;56800;52.142;5.364;2024-01-07T11:38:43;5.15;;;2.60;;
69594;SDS011;56800;52.142;5.364;2024-01-07T11:41:14;4.95;;;2.60;;
69594;SDS011;56800;52.142;5.364;2024-01-07T11:43:54;5.23;;;2.13;;
69594;SDS011;56800;52.142;5.364;2024-01-07T11:46:31;4.95;;;2.00;;
69594;SDS011;56800;52.142;5.364;2024-01-07T11:48:59;3.97;;;1.90;;
69594;SDS011;56800;52.142;5.364;2024-01-07T11:51:30;3.80;;;2.00;;
69594;SDS011;56800;52.142;5.364;2024-01-07T11:53:59;4.20;;;2.17;;
69594;SDS011;56800;52.142;5.364;2024-01-07T11:56:27;3.53;;;2.00;;
69594;SDS011;56800;52.142;5.364;2024-01-07T11:58:54;3.50;;;2.05;;
69594;SDS011;56800;52.142;5.364;2024-01-07T12:01:25;4.50;;;1.92;;
69594;SDS011;56800;52.142;5.364;2024-01-07T12:03:53;3.38;;;1.90;;
69594;SDS011;56800;52.142;5.364;2024-01-07T12:06:20;3.92;;;1.77;;
69594;SDS011;56800;52.142;5.364;2024-01-07T12:08:47;4.27;;;2.17;;
69594;SDS011;56800;52.142;5.364;2024-01-07T12:11:14;3.40;;;1.70;;
69594;SDS011;56800;52.142;5.364;2024-01-07T12:13:42;5.20;;;1.85;;
69594;SDS011;56800;52.142;5.364;2024-01-07T12:16:09;3.85;;;1.90;;
69594;SDS011;56800;52.142;5.364;2024-01-07T12:18:37;4.30;;;1.98;;
69594;SDS011;56800;52.142;5.364;2024-01-07T12:21:08;3.10;;;1.77;;
69594;SDS011;56800;52.142;5.364;2024-01-07T12:23:35;4.80;;;2.17;;
69594;SDS011;56800;52.142;5.364;2024-01-07T12:26:09;4.70;;;1.70;;
69594;SDS011;56800;52.142;5.364;2024-01-07T12:28:37;4.32;;;1.77;;
69594;SDS011;56800;52.142;5.364;2024-01-07T12:31:04;3.83;;;1.80;;
69594;SDS011;56800;52.142;5.364;2024-01-07T12:33:32;4.90;;;1.53;;
69594;SDS011;56800;52.142;5.364;2024-01-07T12:36:00;3.60;;;1.60;;
69594;SDS011;56800;52.142;5.364;2024-01-07T12:38:27;3.70;;;1.35;;
69594;SDS011;56800;52.142;5.364;2024-01-07T12:40:54;3.15;;;1.52;;
69594;SDS011;56800;52.142;5.364;2024-01-07T12:43:21;4.00;;;1.60;;
69594;SDS011;56800;52.142;5.364;2024-01-07T12:45:48;3.30;;;1.50;;
69594;SDS011;56800;52.142;5.364;2024-01-07T12:48:16;3.30;;;1.50;;
69594;SDS011;56800;52.142;5.364;2024-01-07T12:50:42;3.17;;;1.33;;
69594;SDS011;56800;52.142;5.364;2024-01-07T12:53:09;3.55;;;1.75;;
69594;SDS011;56800;52.142;5.364;2024-01-07T12:55:36;3.10;;;1.50;;
69594;SDS011;56800;52.142;5.364;2024-01-07T12:58:02;3.37;;;1.20;;
69594;SDS011;56800;52.142;5.364;2024-01-07T13:00:29;5.18;;;1.38;;
69594;SDS011;56800;52.142;5.364;2024-01-07T13:02:56;3.88;;;1.45;;
69594;SDS011;56800;52.142;5.364;2024-01-07T13:05:27;3.47;;;1.40;;
69594;SDS011;56800;52.142;5.364;2024-01-07T13:07:54;4.85;;;1.30;;
69594;SDS011;56800;52.142;5.364;2024-01-07T13:10:21;2.90;;;1.30;;
69594;SDS011;56800;52.142;5.364;2024-01-07T13:12:48;4.18;;;1.30;;
69594;SDS011;56800;52.142;5.364;2024-01-07T13:15:20;3.15;;;1.40;;
69594;SDS011;56800;52.142;5.364;2024-01-07T13:17:48;2.70;;;1.15;;
69594;SDS011;56800;52.142;5.364;2024-01-07T13:20:15;4.10;;;1.90;;
69594;SDS011;56800;52.142;5.364;2024-01-07T13:22:43;3.70;;;1.23;;
69594;SDS011;56800;52.142;5.364;2024-01-07T13:25:10;2.00;;;1.20;;
69594;SDS011;56800;52.142;5.364;2024-01-07T13:27:36;3.03;;;1.38;;
69594;SDS011;56800;52.142;5.364;2024-01-07T13:30:04;2.88;;;1.40;;
69594;SDS011;56800;52.142;5.364;2024-01-07T13:32:32;3.00;;;1.40;;
69594;SDS011;56800;52.142;5.364;2024-01-07T13:35:03;5.77;;;1.40;;
69594;SDS011;56800;52.142;5.364;2024-01-07T13:37:30;4.45;;;1.55;;
69594;SDS011;56800;52.142;5.364;2024-01-07T13:39:57;4.03;;;1.58;;
69594;SDS011;56800;52.142;5.364;2024-01-07T13:42:24;3.78;;;1.38;;
69594;SDS011;56800;52.142;5.364;2024-01-07T13:44:57;2.65;;;1.30;;
69594;SDS011;56800;52.142;5.364;2024-01-07T13:47:24;3.20;;;1.30;;
69594;SDS011;56800;52.142;5.364;2024-01-07T13:49:51;5.15;;;1.40;;
69594;SDS011;56800;52.142;5.364;2024-01-07T13:52:18;2.00;;;1.10;;
69594;SDS011;56800;52.142;5.364;2024-01-07T13:54:45;4.63;;;1.30;;
69594;SDS011;56800;52.142;5.364;2024-01-07T13:57:13;3.28;;;1.13;;
69594;SDS011;56800;52.142;5.364;2024-01-07T13:59:40;2.90;;;1.33;;
69594;SDS011;56800;52.142;5.364;2024-01-07T14:02:07;3.67;;;1.30;;
69594;SDS011;56800;52.142;5.364;2024-01-07T14:04:35;5.40;;;1.35;;
69594;SDS011;56800;52.142;5.364;2024-01-07T14:07:02;2.80;;;1.17;;
69594;SDS011;56800;52.142;5.364;2024-01-07T14:09:29;3.47;;;1.40;;
69594;SDS011;56800;52.142;5.364;2024-01-07T14:11:58;5.10;;;1.00;;
69594;SDS011;56800;52.142;5.364;2024-01-07T14:14:25;3.30;;;1.30;;
69594;SDS011;56800;52.142;5.364;2024-01-07T14:16:52;3.55;;;1.30;;
69594;SDS011;56800;52.142;5.364;2024-01-07T14:19:18;3.88;;;1.38;;
69594;SDS011;56800;52.142;5.364;2024-01-07T14:21:45;3.83;;;1.63;;
69594;SDS011;56800;52.142;5.364;2024-01-07T14:24:12;4.05;;;1.10;;
69594;SDS011;56800;52.142;5.364;2024-01-07T14:26:41;3.13;;;1.27;;
69594;SDS011;56800;52.142;5.364;2024-01-07T14:29:08;2.70;;;1.30;;
69594;SDS011;56800;52.142;5.364;2024-01-07T14:31:43;3.13;;;1.50;;
69594;SDS011;56800;52.142;5.364;2024-01-07T14:34:12;2.80;;;1.30;;
69594;SDS011;56800;52.142;5.364;2024-01-07T14:36:39;3.40;;;1.42;;
69594;SDS011;56800;52.142;5.364;2024-01-07T14:39:09;2.92;;;1.40;;
69594;SDS011;56800;52.142;5.364;2024-01-07T14:41:41;3.63;;;1.33;;
69594;SDS011;56800;52.142;5.364;2024-01-07T14:44:07;3.75;;;1.20;;
69594;SDS011;56800;52.142;5.364;2024-01-07T14:46:38;4.38;;;1.10;;